createdAt,value
2018-07-31T00:00:58.782Z,23.20
2018-07-31T00:05:55.258Z,23.20
2018-07-31T00:08:24.144Z,23.20
2018-07-31T00:10:55.625Z,23.20
2018-07-31T00:13:23.959Z,23.10
2018-07-31T00:18:20.312Z,23.10
2018-07-31T00:20:48.684Z,23.10
2018-07-31T00:23:18.568Z,23.10
2018-07-31T00:25:48.411Z,23.00
2018-07-31T00:28:16.685Z,23.00
2018-07-31T00:30:44.995Z,23.00
2018-07-31T00:33:13.265Z,23.00
2018-07-31T00:35:42.542Z,22.90
2018-07-31T00:38:10.840Z,22.80
2018-07-31T00:40:39.172Z,22.70
2018-07-31T00:43:07.475Z,22.60
2018-07-31T00:45:35.851Z,22.40
2018-07-31T00:48:04.263Z,22.30
2018-07-31T00:50:32.612Z,22.30
2018-07-31T00:53:01.891Z,22.30
2018-07-31T00:55:30.159Z,22.40
2018-07-31T00:57:58.555Z,22.50
2018-07-31T01:00:27.187Z,22.50
2018-07-31T01:02:55.511Z,22.50
2018-07-31T01:05:24.339Z,22.50
2018-07-31T01:07:52.835Z,22.30
2018-07-31T01:10:21.173Z,22.20
2018-07-31T01:12:49.620Z,22.20
2018-07-31T01:15:17.953Z,22.20
2018-07-31T01:17:46.340Z,22.30
2018-07-31T01:20:14.715Z,22.20
2018-07-31T01:22:43.057Z,22.20
2018-07-31T01:25:11.343Z,22.10
2018-07-31T01:27:39.724Z,22.00
2018-07-31T01:30:08.128Z,22.00
2018-07-31T01:32:36.492Z,22.00
2018-07-31T01:35:04.929Z,21.90
2018-07-31T01:37:33.266Z,21.80
2018-07-31T01:40:01.618Z,21.90
2018-07-31T01:42:31.003Z,21.90
2018-07-31T01:44:59.291Z,22.00
2018-07-31T01:47:27.668Z,22.00
2018-07-31T01:49:56.052Z,21.90
2018-07-31T01:52:26.787Z,21.90
2018-07-31T01:54:56.074Z,21.90
2018-07-31T01:57:24.374Z,21.90
2018-07-31T02:02:21.237Z,21.70
2018-07-31T02:04:49.611Z,21.70
2018-07-31T02:07:17.986Z,21.80
2018-07-31T02:09:46.363Z,21.80
2018-07-31T02:12:14.755Z,21.80
2018-07-31T02:14:43.123Z,21.80
2018-07-31T02:17:11.507Z,21.80
2018-07-31T02:19:39.860Z,21.70
2018-07-31T02:22:08.151Z,21.70
2018-07-31T02:24:36.570Z,21.70
2018-07-31T02:27:04.926Z,21.60
2018-07-31T02:29:38.482Z,21.60
2018-07-31T02:32:06.781Z,21.50
2018-07-31T02:34:35.199Z,21.50
2018-07-31T02:37:03.577Z,21.50
2018-07-31T02:39:31.930Z,21.50
2018-07-31T02:42:00.295Z,21.40
2018-07-31T02:44:28.600Z,21.40
2018-07-31T02:46:56.964Z,21.40
2018-07-31T02:49:25.369Z,21.40
2018-07-31T02:51:53.708Z,21.40
2018-07-31T02:54:23.017Z,21.40
2018-07-31T02:56:51.431Z,21.30
2018-07-31T02:59:19.804Z,21.30
2018-07-31T03:01:48.166Z,21.20
2018-07-31T03:04:16.538Z,21.10
2018-07-31T03:06:44.931Z,20.90
2018-07-31T03:09:13.325Z,20.80
2018-07-31T03:11:41.676Z,20.90
2018-07-31T03:17:12.924Z,21.00
2018-07-31T03:19:41.294Z,21.10
2018-07-31T03:22:09.594Z,21.10
2018-07-31T03:24:37.963Z,21.00
2018-07-31T03:27:06.332Z,21.00
2018-07-31T03:29:34.747Z,21.10
2018-07-31T03:32:03.124Z,21.10
2018-07-31T03:34:31.498Z,21.00
2018-07-31T03:36:59.877Z,21.00
2018-07-31T03:39:28.232Z,21.00
2018-07-31T03:41:56.643Z,20.90
2018-07-31T03:44:24.994Z,20.80
2018-07-31T03:46:53.415Z,20.80
2018-07-31T03:49:25.787Z,20.70
2018-07-31T03:51:54.149Z,20.70
2018-07-31T03:54:22.551Z,20.70
2018-07-31T03:56:50.908Z,20.70
2018-07-31T03:59:19.288Z,20.70
2018-07-31T04:01:47.699Z,20.70
2018-07-31T04:04:15.998Z,20.60
2018-07-31T04:06:44.375Z,20.40
2018-07-31T04:09:13.723Z,20.30
2018-07-31T04:11:48.165Z,20.20
2018-07-31T04:14:16.984Z,20.20
2018-07-31T04:16:45.791Z,20.20
2018-07-31T04:19:14.107Z,20.10
2018-07-31T04:21:42.482Z,20.10
2018-07-31T04:24:10.831Z,20.10
2018-07-31T04:26:39.107Z,20.30
2018-07-31T04:29:07.483Z,20.30
2018-07-31T04:31:35.887Z,20.40
2018-07-31T04:34:04.272Z,20.30
2018-07-31T04:36:32.657Z,20.30
2018-07-31T04:39:01.079Z,20.20
2018-07-31T04:41:29.437Z,20.20
2018-07-31T04:43:57.792Z,20.20
2018-07-31T04:46:26.144Z,20.30
2018-07-31T04:48:54.531Z,20.30
2018-07-31T04:51:22.892Z,20.40
2018-07-31T04:53:51.287Z,20.40
2018-07-31T04:56:19.684Z,20.40
2018-07-31T04:58:50.799Z,20.40
2018-07-31T05:01:19.201Z,20.40
2018-07-31T05:03:47.609Z,20.50
2018-07-31T05:06:15.961Z,20.50
2018-07-31T05:08:44.360Z,20.60
2018-07-31T05:11:12.801Z,20.70
2018-07-31T05:13:41.100Z,20.70
2018-07-31T05:16:09.450Z,20.70
2018-07-31T05:21:05.855Z,20.80
2018-07-31T05:23:34.225Z,20.90
2018-07-31T05:26:02.591Z,20.90
2018-07-31T05:28:30.988Z,20.90
2018-07-31T05:30:59.448Z,21.00
2018-07-31T05:33:28.175Z,21.00
2018-07-31T05:35:56.495Z,21.00
2018-07-31T05:38:24.867Z,21.00
2018-07-31T05:40:53.317Z,21.10
2018-07-31T05:43:21.653Z,21.10
2018-07-31T05:45:49.994Z,21.20
2018-07-31T05:48:18.371Z,21.30
2018-07-31T05:50:46.743Z,21.40
2018-07-31T05:53:15.039Z,21.40
2018-07-31T05:55:43.469Z,21.50
2018-07-31T05:58:11.804Z,21.50
2018-07-31T06:00:40.160Z,21.50
2018-07-31T06:03:08.564Z,21.60
2018-07-31T06:05:36.828Z,21.70
2018-07-31T06:08:05.083Z,21.80
2018-07-31T06:10:33.354Z,21.90
2018-07-31T06:13:01.639Z,22.00
2018-07-31T06:15:29.901Z,22.00
2018-07-31T06:17:58.243Z,22.20
2018-07-31T06:20:26.489Z,22.30
2018-07-31T06:22:54.887Z,22.40
2018-07-31T06:25:24.017Z,22.70
2018-07-31T06:27:52.342Z,23.20
2018-07-31T06:32:48.758Z,24.60
2018-07-31T06:35:17.103Z,25.20
2018-07-31T06:37:45.448Z,25.70
2018-07-31T06:40:13.834Z,26.30
2018-07-31T06:42:42.231Z,26.70
2018-07-31T06:45:10.518Z,27.10
2018-07-31T06:47:38.790Z,27.20
2018-07-31T06:50:07.145Z,27.30
2018-07-31T06:52:35.504Z,27.30
2018-07-31T06:55:03.944Z,27.40
2018-07-31T06:57:32.261Z,27.40
2018-07-31T07:00:01.976Z,27.40
2018-07-31T07:02:30.363Z,27.60
2018-07-31T07:07:27.529Z,27.80
2018-07-31T07:09:55.892Z,27.80
2018-07-31T07:12:24.195Z,27.80
2018-07-31T07:14:52.559Z,27.90
2018-07-31T07:17:20.937Z,27.80
2018-07-31T07:19:49.325Z,27.90
2018-07-31T07:22:17.711Z,28.00
2018-07-31T07:24:46.067Z,28.10
2018-07-31T07:27:14.463Z,28.30
2018-07-31T07:29:43.051Z,28.50
2018-07-31T07:32:11.404Z,28.80
2018-07-31T07:34:39.814Z,30.00
2018-07-31T07:37:08.206Z,31.80
2018-07-31T07:39:36.534Z,32.80
2018-07-31T07:42:04.935Z,33.20
2018-07-31T07:44:33.241Z,33.00
2018-07-31T07:47:01.583Z,32.20
2018-07-31T07:49:29.970Z,31.80
2018-07-31T07:51:58.245Z,31.50
2018-07-31T07:54:26.661Z,31.30
2018-07-31T07:56:54.991Z,31.10
2018-07-31T07:59:23.271Z,31.10
2018-07-31T08:01:51.548Z,31.60
2018-07-31T08:04:19.843Z,32.90
2018-07-31T08:06:48.182Z,34.10
2018-07-31T08:09:16.491Z,35.50
2018-07-31T08:11:44.906Z,36.70
2018-07-31T08:14:13.269Z,37.30
2018-07-31T08:16:41.604Z,37.70
2018-07-31T08:19:09.902Z,36.20
2018-07-31T08:21:38.283Z,34.40
2018-07-31T08:24:06.744Z,33.10
2018-07-31T08:26:35.255Z,33.00
2018-07-31T08:29:03.601Z,33.00
2018-07-31T08:31:31.881Z,32.10
2018-07-31T08:34:00.167Z,31.60
2018-07-31T08:36:28.564Z,31.30
2018-07-31T08:38:57.354Z,31.00
2018-07-31T08:41:25.812Z,31.20
2018-07-31T08:43:54.095Z,31.30
2018-07-31T08:46:22.477Z,31.20
2018-07-31T08:48:51.789Z,31.00
2018-07-31T08:51:20.175Z,30.90
2018-07-31T08:53:48.548Z,31.00
2018-07-31T08:56:17.080Z,31.10
2018-07-31T08:58:45.395Z,31.40
2018-07-31T09:01:13.762Z,31.60
2018-07-31T09:03:42.165Z,31.60
2018-07-31T09:06:10.418Z,31.80
2018-07-31T09:08:38.754Z,32.00
2018-07-31T09:11:07.004Z,32.30
2018-07-31T09:13:35.277Z,32.40
2018-07-31T09:16:03.604Z,32.50
2018-07-31T09:18:31.887Z,32.60
2018-07-31T09:21:00.230Z,32.70
2018-07-31T09:23:28.523Z,32.60
2018-07-31T09:26:00.248Z,32.60
2018-07-31T09:28:28.950Z,32.60
2018-07-31T09:31:02.767Z,32.80
2018-07-31T09:33:31.143Z,33.00
2018-07-31T09:35:59.714Z,32.80
2018-07-31T09:38:28.061Z,32.70
2018-07-31T09:43:24.422Z,32.70
2018-07-31T09:45:52.798Z,32.90
2018-07-31T09:48:21.104Z,33.20
2018-07-31T09:50:49.352Z,33.20
2018-07-31T09:53:17.749Z,33.00
2018-07-31T09:55:46.128Z,32.80
2018-07-31T09:58:15.531Z,32.80
2018-07-31T10:00:49.372Z,32.80
2018-07-31T10:03:17.740Z,33.00
2018-07-31T10:05:46.136Z,33.30
2018-07-31T10:08:20.496Z,33.40
2018-07-31T10:10:52.784Z,33.50
2018-07-31T10:13:21.269Z,33.70
2018-07-31T10:15:49.771Z,33.90
2018-07-31T10:18:18.136Z,34.10
2018-07-31T10:20:46.421Z,34.30
2018-07-31T10:23:14.820Z,34.50
2018-07-31T10:25:43.118Z,34.50
2018-07-31T10:28:11.445Z,34.40
2018-07-31T10:30:39.797Z,34.50
2018-07-31T10:33:08.148Z,34.60
2018-07-31T10:35:36.471Z,34.50
2018-07-31T10:38:06.022Z,34.30
2018-07-31T10:40:34.478Z,34.30
2018-07-31T10:43:02.810Z,34.40
2018-07-31T10:45:31.210Z,34.60
2018-07-31T10:47:59.615Z,34.70
2018-07-31T10:50:28.449Z,34.90
2018-07-31T10:52:58.139Z,35.00
2018-07-31T10:55:26.494Z,34.50
2018-07-31T10:57:54.885Z,34.10
2018-07-31T11:00:23.277Z,34.10
2018-07-31T11:02:51.676Z,34.20
2018-07-31T11:05:19.952Z,34.40
2018-07-31T11:07:48.240Z,34.40
2018-07-31T11:10:16.622Z,34.60
2018-07-31T11:12:45.026Z,34.80
2018-07-31T11:15:13.456Z,35.00
2018-07-31T11:17:41.749Z,35.30
2018-07-31T11:20:10.160Z,35.30
2018-07-31T11:22:38.519Z,35.30
2018-07-31T11:25:07.151Z,35.20
2018-07-31T11:27:35.552Z,35.10
2018-07-31T11:30:04.563Z,35.00
2018-07-31T11:32:32.852Z,34.90
2018-07-31T11:35:01.229Z,34.80
2018-07-31T11:37:31.035Z,34.70
2018-07-31T11:39:59.459Z,34.70
2018-07-31T11:42:28.835Z,34.60
2018-07-31T11:44:57.199Z,34.60
2018-07-31T11:47:26.479Z,34.40
2018-07-31T11:49:54.930Z,34.40
2018-07-31T11:52:23.139Z,34.70
2018-07-31T11:54:51.424Z,34.80
2018-07-31T11:59:47.805Z,34.80
2018-07-31T12:02:16.206Z,35.00
2018-07-31T12:04:44.576Z,34.90
2018-07-31T12:07:13.774Z,34.70
2018-07-31T12:09:42.145Z,34.50
2018-07-31T12:12:10.556Z,34.50
2018-07-31T12:14:38.957Z,34.50
2018-07-31T12:17:07.289Z,34.50
2018-07-31T12:19:35.635Z,34.50
2018-07-31T12:22:04.041Z,34.50
2018-07-31T12:24:32.504Z,34.50
2018-07-31T12:27:00.916Z,34.60
2018-07-31T12:29:29.766Z,34.70
2018-07-31T12:31:58.130Z,34.70
2018-07-31T12:34:26.499Z,34.80
2018-07-31T12:36:54.795Z,34.70
2018-07-31T12:39:23.155Z,34.80
2018-07-31T12:41:51.551Z,34.80
2018-07-31T12:44:19.924Z,35.00
2018-07-31T12:46:48.198Z,35.10
2018-07-31T12:49:17.562Z,35.10
2018-07-31T12:51:45.918Z,35.10
2018-07-31T12:54:14.211Z,35.10
2018-07-31T12:56:42.547Z,35.20
2018-07-31T13:01:38.966Z,35.30
2018-07-31T13:04:07.334Z,35.40
2018-07-31T13:06:36.874Z,35.40
2018-07-31T13:09:07.248Z,35.30
2018-07-31T13:11:35.752Z,35.40
2018-07-31T13:14:04.230Z,35.40
2018-07-31T13:16:32.525Z,35.20
2018-07-31T13:19:01.151Z,35.10
2018-07-31T13:21:30.528Z,35.20
2018-07-31T13:23:58.907Z,35.10
2018-07-31T13:28:55.290Z,35.00
2018-07-31T13:31:23.705Z,35.00
2018-07-31T13:33:52.101Z,35.10
2018-07-31T13:36:20.558Z,35.10
2018-07-31T13:38:48.891Z,35.20
2018-07-31T13:41:17.364Z,35.20
2018-07-31T13:43:46.349Z,35.20
2018-07-31T13:46:14.639Z,35.10
2018-07-31T13:48:43.059Z,34.90
2018-07-31T13:51:11.453Z,34.70
2018-07-31T13:53:39.785Z,34.60
2018-07-31T13:56:08.282Z,34.70
2018-07-31T13:58:36.694Z,34.80
2018-07-31T14:01:05.063Z,34.70
2018-07-31T14:03:33.412Z,34.80
2018-07-31T14:06:01.925Z,34.70
2018-07-31T14:08:30.236Z,34.80
2018-07-31T14:10:58.641Z,34.70
2018-07-31T14:13:27.027Z,34.70
2018-07-31T14:15:55.577Z,34.80
2018-07-31T14:18:26.989Z,34.50
2018-07-31T14:20:55.348Z,34.40
2018-07-31T14:23:23.683Z,34.40
2018-07-31T14:28:20.149Z,34.60
2018-07-31T14:30:48.598Z,34.70
2018-07-31T14:33:16.858Z,34.60
2018-07-31T14:35:45.180Z,34.70
2018-07-31T14:38:13.550Z,34.60
2018-07-31T14:40:41.933Z,34.50
2018-07-31T14:43:10.490Z,34.40
2018-07-31T14:45:38.783Z,34.40
2018-07-31T14:48:08.132Z,34.40
2018-07-31T14:50:36.524Z,34.50
2018-07-31T14:53:04.864Z,34.40
2018-07-31T14:55:33.253Z,34.40
2018-07-31T14:58:01.640Z,34.40
2018-07-31T15:00:29.987Z,34.40
2018-07-31T15:02:58.398Z,34.30
2018-07-31T15:05:27.763Z,34.20
2018-07-31T15:07:56.159Z,34.10
2018-07-31T15:10:24.560Z,34.10
2018-07-31T15:12:52.896Z,33.90
2018-07-31T15:15:21.240Z,33.80
2018-07-31T15:17:49.510Z,33.80
2018-07-31T15:20:17.789Z,33.70
2018-07-31T15:22:46.061Z,33.60
2018-07-31T15:25:14.388Z,33.50
2018-07-31T15:27:42.801Z,33.50
2018-07-31T15:30:11.211Z,33.50
2018-07-31T15:32:39.592Z,33.50
2018-07-31T15:35:07.919Z,33.60
2018-07-31T15:37:36.362Z,33.70
2018-07-31T15:40:17.433Z,33.80
2018-07-31T15:42:45.749Z,33.60
2018-07-31T15:45:14.036Z,33.50
2018-07-31T15:47:42.501Z,33.50
2018-07-31T15:50:10.924Z,33.50
2018-07-31T15:52:39.270Z,33.60
2018-07-31T15:55:07.610Z,33.60
2018-07-31T15:57:35.930Z,33.50
2018-07-31T16:00:08.163Z,33.40
2018-07-31T16:02:36.556Z,33.40
2018-07-31T16:05:05.469Z,33.40
2018-07-31T16:07:33.780Z,33.40
2018-07-31T16:10:02.298Z,33.50
2018-07-31T16:12:30.660Z,33.40
2018-07-31T16:14:58.974Z,33.40
2018-07-31T16:17:28.215Z,33.50
2018-07-31T16:19:56.507Z,33.60
2018-07-31T16:22:25.395Z,33.50
2018-07-31T16:24:53.693Z,33.50
2018-07-31T16:27:22.048Z,33.60
2018-07-31T16:29:50.382Z,33.70
2018-07-31T16:32:21.687Z,33.60
2018-07-31T16:34:49.981Z,33.50
2018-07-31T16:37:18.314Z,33.50
2018-07-31T16:39:46.677Z,33.60
2018-07-31T16:42:14.926Z,33.70
2018-07-31T16:44:43.417Z,33.60
2018-07-31T16:47:12.285Z,33.50
2018-07-31T16:49:40.651Z,33.50
2018-07-31T16:52:08.979Z,33.40
2018-07-31T16:54:37.316Z,33.30
2018-07-31T16:57:05.577Z,33.30
2018-07-31T16:59:33.890Z,33.30
2018-07-31T17:02:02.254Z,33.20
2018-07-31T17:04:30.636Z,33.20
2018-07-31T17:06:59.012Z,33.10
2018-07-31T17:09:27.499Z,33.00
2018-07-31T17:11:55.909Z,32.90
2018-07-31T17:14:24.275Z,32.80
2018-07-31T17:16:52.626Z,32.70
2018-07-31T17:19:21.030Z,32.60
2018-07-31T17:21:49.424Z,32.60
2018-07-31T17:24:18.232Z,32.50
2018-07-31T17:26:46.763Z,32.40
2018-07-31T17:29:15.237Z,32.40
2018-07-31T17:31:43.535Z,32.30
2018-07-31T17:34:11.956Z,32.20
2018-07-31T17:36:40.276Z,32.20
2018-07-31T17:39:09.865Z,32.10
2018-07-31T17:41:38.890Z,32.00
2018-07-31T17:44:07.630Z,31.90
2018-07-31T17:46:36.142Z,31.90
2018-07-31T17:49:04.645Z,31.80
2018-07-31T17:51:33.085Z,31.70
2018-07-31T17:54:01.420Z,31.60
2018-07-31T17:56:29.802Z,31.60
2018-07-31T17:58:58.138Z,31.50
2018-07-31T18:01:26.444Z,31.50
2018-07-31T18:03:54.774Z,31.30
2018-07-31T18:06:23.078Z,31.30
2018-07-31T18:08:52.729Z,31.20
2018-07-31T18:11:21.219Z,31.20
2018-07-31T18:13:49.564Z,31.10
2018-07-31T18:16:17.934Z,31.10
2018-07-31T18:18:46.231Z,31.00
2018-07-31T18:21:14.525Z,30.90
2018-07-31T18:23:42.905Z,31.00
2018-07-31T18:26:11.195Z,30.90
2018-07-31T18:28:39.549Z,30.80
2018-07-31T18:31:07.852Z,30.80
2018-07-31T18:33:36.170Z,30.80
2018-07-31T18:36:04.513Z,30.80
2018-07-31T18:38:32.820Z,30.70
2018-07-31T18:41:01.162Z,30.70
2018-07-31T18:43:29.411Z,30.60
2018-07-31T18:45:57.741Z,30.60
2018-07-31T18:48:26.071Z,30.50
2018-07-31T18:50:54.460Z,30.50
2018-07-31T18:53:22.838Z,30.40
2018-07-31T18:55:51.272Z,30.30
2018-07-31T18:58:19.631Z,30.10
2018-07-31T19:00:47.967Z,30.00
2018-07-31T19:03:16.316Z,29.80
2018-07-31T19:05:44.681Z,29.70
2018-07-31T19:08:13.148Z,29.70
2018-07-31T19:10:41.513Z,29.60
2018-07-31T19:13:09.976Z,29.50
2018-07-31T19:15:38.291Z,29.50
2018-07-31T19:18:07.595Z,29.40
2018-07-31T19:20:36.063Z,29.40
2018-07-31T19:23:04.465Z,29.30
2018-07-31T19:25:32.927Z,29.30
2018-07-31T19:28:01.340Z,29.30
2018-07-31T19:30:29.688Z,29.30
2018-07-31T19:32:58.506Z,29.30
2018-07-31T19:37:55.625Z,29.30
2018-07-31T19:40:24.657Z,29.20
2018-07-31T19:42:53.021Z,29.20
2018-07-31T19:45:21.350Z,29.20
2018-07-31T19:47:50.248Z,29.10
2018-07-31T19:50:18.644Z,29.10
2018-07-31T19:52:46.970Z,29.00
2018-07-31T19:55:15.345Z,28.90
2018-07-31T19:57:43.841Z,28.80
2018-07-31T20:00:12.188Z,28.80
2018-07-31T20:02:40.527Z,28.80
2018-07-31T20:05:09.104Z,28.80
2018-07-31T20:07:37.770Z,28.70
2018-07-31T20:10:06.540Z,28.70
2018-07-31T20:12:34.906Z,28.70
2018-07-31T20:15:03.301Z,28.60
2018-07-31T20:17:31.620Z,28.60
2018-07-31T20:20:00.003Z,28.50
2018-07-31T20:22:28.489Z,28.50
2018-07-31T20:24:56.887Z,28.40
2018-07-31T20:27:25.254Z,28.40
2018-07-31T20:29:53.662Z,28.40
2018-07-31T20:32:22.186Z,28.30
2018-07-31T20:34:50.676Z,28.30
2018-07-31T20:37:18.959Z,28.20
2018-07-31T20:39:47.343Z,28.20
2018-07-31T20:42:15.732Z,28.10
2018-07-31T20:44:44.123Z,28.10
2018-07-31T20:47:12.469Z,28.00
2018-07-31T20:49:40.820Z,28.00
2018-07-31T20:52:09.153Z,27.90
2018-07-31T20:54:37.509Z,27.90
2018-07-31T20:57:06.159Z,27.80
2018-07-31T20:59:34.615Z,27.80
2018-07-31T21:02:03.069Z,27.80
2018-07-31T21:04:31.392Z,27.70
2018-07-31T21:06:59.854Z,27.70
2018-07-31T21:09:28.292Z,27.60
2018-07-31T21:11:56.648Z,27.60
2018-07-31T21:14:25.097Z,27.50
2018-07-31T21:16:53.561Z,27.50
2018-07-31T21:19:21.955Z,27.40
2018-07-31T21:21:50.428Z,27.40
2018-07-31T21:24:18.735Z,27.40
2018-07-31T21:26:47.088Z,27.40
2018-07-31T21:29:15.522Z,27.40
2018-07-31T21:31:43.878Z,27.40
2018-07-31T21:34:12.346Z,27.40
2018-07-31T21:36:40.793Z,27.30
2018-07-31T21:39:10.714Z,27.20
2018-07-31T21:41:39.355Z,27.20
2018-07-31T21:44:07.756Z,27.20
2018-07-31T21:46:36.160Z,27.20
2018-07-31T21:49:04.485Z,27.10
2018-07-31T21:51:32.889Z,27.10
2018-07-31T21:54:01.477Z,27.10
2018-07-31T21:56:29.864Z,27.10
2018-07-31T21:58:58.213Z,27.10
2018-07-31T22:01:26.604Z,27.00
2018-07-31T22:03:54.988Z,27.00
2018-07-31T22:06:23.528Z,27.00
2018-07-31T22:08:51.901Z,26.90
2018-07-31T22:11:20.336Z,26.90
2018-07-31T22:13:48.913Z,26.80
2018-07-31T22:16:17.441Z,26.80
2018-07-31T22:18:46.028Z,26.80
2018-07-31T22:21:14.738Z,26.70
2018-07-31T22:23:43.166Z,26.70
2018-07-31T22:26:11.494Z,26.60
2018-07-31T22:28:40.105Z,26.60
2018-07-31T22:31:08.699Z,26.50
2018-07-31T22:33:37.261Z,26.40
2018-07-31T22:36:05.867Z,26.40
2018-07-31T22:38:34.428Z,26.40
2018-07-31T22:41:03.048Z,26.30
2018-07-31T22:43:31.796Z,26.30
2018-07-31T22:46:00.079Z,26.30
2018-07-31T22:48:28.458Z,26.30
2018-07-31T22:50:56.974Z,26.20
2018-07-31T22:53:25.319Z,26.20
2018-07-31T22:55:54.191Z,26.20
2018-07-31T22:58:22.692Z,26.10
2018-07-31T23:00:51.156Z,26.10
2018-07-31T23:03:19.761Z,26.10
2018-07-31T23:05:48.110Z,26.00
2018-07-31T23:08:16.493Z,26.00
2018-07-31T23:10:44.907Z,25.90
2018-07-31T23:13:13.488Z,25.90
2018-07-31T23:15:41.823Z,25.80
2018-07-31T23:18:10.272Z,25.80
2018-07-31T23:20:38.642Z,25.70
2018-07-31T23:23:08.352Z,25.70
2018-07-31T23:25:36.731Z,25.70
2018-07-31T23:28:05.106Z,25.60
2018-07-31T23:30:33.467Z,25.60
2018-07-31T23:33:02.021Z,25.50
2018-07-31T23:35:30.484Z,25.50
2018-07-31T23:37:58.904Z,25.40
2018-07-31T23:40:27.252Z,25.40
2018-07-31T23:42:55.785Z,25.40
2018-07-31T23:45:24.147Z,25.30
2018-07-31T23:47:53.697Z,25.30
2018-07-31T23:50:22.039Z,25.30
2018-07-31T23:52:50.420Z,25.30
2018-07-31T23:55:18.870Z,25.30
2018-07-31T23:57:47.296Z,25.30
